createdAt,value
2023-03-26T00:01:38.659Z,7.71
2023-03-26T00:04:07.784Z,7.69
2023-03-26T00:06:39.436Z,7.71
2023-03-26T00:09:10.285Z,7.70
2023-03-26T00:11:38.621Z,7.70
2023-03-26T00:14:07.034Z,7.69
2023-03-26T00:16:36.358Z,7.67
2023-03-26T00:19:04.949Z,7.67
2023-03-26T00:21:33.359Z,7.66
2023-03-26T00:24:07.449Z,7.64
2023-03-26T00:26:37.618Z,7.63
2023-03-26T00:29:06.962Z,7.66
2023-03-26T00:31:35.856Z,7.67
2023-03-26T00:34:05.659Z,7.63
2023-03-26T00:36:36.097Z,7.64
2023-03-26T00:39:05.698Z,7.64
2023-03-26T00:41:43.080Z,7.62
2023-03-26T00:44:13.565Z,7.60
2023-03-26T00:46:42.083Z,7.59
2023-03-26T00:49:11.060Z,7.57
2023-03-26T00:51:42.418Z,7.57
2023-03-26T00:54:11.000Z,7.59
2023-03-26T00:56:39.165Z,7.60
2023-03-26T00:59:09.194Z,7.59
2023-03-26T01:04:27.464Z,7.62
2023-03-26T01:07:00.868Z,7.63
2023-03-26T01:09:34.486Z,7.67
2023-03-26T01:12:06.552Z,7.67
2023-03-26T01:14:34.926Z,7.66
2023-03-26T01:17:06.904Z,7.63
2023-03-26T01:19:53.581Z,7.62
2023-03-26T01:22:25.199Z,7.59
2023-03-26T01:24:56.415Z,7.56
2023-03-26T01:27:39.432Z,7.50
2023-03-26T01:30:19.670Z,7.46
2023-03-26T01:32:50.586Z,7.47
2023-03-26T01:35:44.950Z,7.46
2023-03-26T01:38:50.061Z,7.45
2023-03-26T01:41:44.004Z,7.39
2023-03-26T01:44:29.344Z,7.38
2023-03-26T01:46:59.146Z,7.39
2023-03-26T01:49:31.430Z,7.38
2023-03-26T01:51:59.698Z,7.43
2023-03-26T01:54:31.325Z,7.45
2023-03-26T01:57:15.776Z,7.50
2023-03-26T02:00:12.455Z,7.52
2023-03-26T02:03:18.412Z,7.47
2023-03-26T02:06:03.714Z,7.38
2023-03-26T02:08:39.185Z,7.32
2023-03-26T02:11:13.124Z,7.26
2023-03-26T02:13:44.416Z,7.22
2023-03-26T02:16:16.425Z,7.18
2023-03-26T02:18:47.356Z,7.15
2023-03-26T02:21:21.444Z,7.18
2023-03-26T02:23:57.566Z,7.16
2023-03-26T02:26:26.070Z,7.16
2023-03-26T02:28:59.754Z,7.12
2023-03-26T02:31:27.700Z,7.09
2023-03-26T02:33:56.689Z,7.08
2023-03-26T02:36:27.353Z,7.07
2023-03-26T02:39:00.146Z,7.04
2023-03-26T02:41:29.763Z,7.02
2023-03-26T02:44:02.102Z,7.02
2023-03-26T02:46:48.532Z,6.97
2023-03-26T02:49:36.805Z,6.97
2023-03-26T02:52:06.656Z,6.94
2023-03-26T02:54:37.070Z,6.94
2023-03-26T02:57:07.791Z,6.92
2023-03-26T02:59:56.089Z,6.88
2023-03-26T03:02:48.225Z,6.87
2023-03-26T03:05:32.693Z,6.87
2023-03-26T03:08:22.309Z,6.87
2023-03-26T03:11:25.062Z,6.91
2023-03-26T03:13:54.182Z,6.94
2023-03-26T03:16:24.466Z,6.98
2023-03-26T03:18:58.140Z,7.04
2023-03-26T03:21:35.683Z,7.05
2023-03-26T03:24:03.886Z,7.08
2023-03-26T03:26:36.565Z,7.11
2023-03-26T03:29:26.496Z,7.16
2023-03-26T03:31:55.768Z,7.19
2023-03-26T03:34:39.041Z,7.19
2023-03-26T03:37:07.581Z,7.23
2023-03-26T03:39:50.615Z,7.23
2023-03-26T03:42:21.361Z,7.25
2023-03-26T03:44:51.705Z,7.28
2023-03-26T03:47:55.014Z,7.30
2023-03-26T03:50:33.029Z,7.33
2023-03-26T03:53:18.556Z,7.29
2023-03-26T03:55:53.296Z,7.28
2023-03-26T03:58:24.718Z,7.23
2023-03-26T04:01:01.036Z,7.28
2023-03-26T04:03:52.380Z,7.29
2023-03-26T04:06:25.245Z,7.30
2023-03-26T04:08:54.758Z,7.29
2023-03-26T04:11:23.305Z,7.30
2023-03-26T04:14:10.286Z,7.30
2023-03-26T04:16:56.971Z,7.32
2023-03-26T04:19:27.354Z,7.33
2023-03-26T04:21:55.589Z,7.36
2023-03-26T04:24:24.502Z,7.29
2023-03-26T04:27:30.289Z,7.32
2023-03-26T04:30:08.492Z,7.33
2023-03-26T04:32:38.591Z,7.33
2023-03-26T04:35:07.728Z,7.33
2023-03-26T04:37:41.083Z,7.36
2023-03-26T04:40:19.443Z,7.35
2023-03-26T04:43:26.503Z,7.38
2023-03-26T04:46:10.643Z,7.35
2023-03-26T04:48:47.785Z,7.36
2023-03-26T04:51:18.148Z,7.33
2023-03-26T04:53:58.273Z,7.36
2023-03-26T04:56:38.088Z,7.33
2023-03-26T04:59:34.661Z,7.32
2023-03-26T05:02:09.607Z,7.32
2023-03-26T05:04:50.049Z,7.28
2023-03-26T05:07:22.467Z,7.35
2023-03-26T05:09:53.604Z,7.32
2023-03-26T05:12:34.551Z,7.30
2023-03-26T05:15:17.120Z,7.32
2023-03-26T05:17:59.982Z,7.35
2023-03-26T05:20:43.657Z,7.35
2023-03-26T05:23:11.885Z,7.36
2023-03-26T05:25:43.467Z,7.35
2023-03-26T05:28:24.367Z,7.39
2023-03-26T05:30:58.608Z,7.40
2023-03-26T05:33:29.689Z,7.43
2023-03-26T05:36:13.577Z,7.47
2023-03-26T05:38:49.366Z,7.49
2023-03-26T05:41:37.213Z,7.50
2023-03-26T05:44:06.098Z,7.50
2023-03-26T05:46:34.256Z,7.53
2023-03-26T05:49:02.465Z,7.52
2023-03-26T05:51:34.691Z,7.53
2023-03-26T05:54:22.810Z,7.53
2023-03-26T05:57:09.109Z,7.56
2023-03-26T05:59:56.348Z,7.59
2023-03-26T06:02:43.066Z,7.59
2023-03-26T06:05:37.285Z,7.60
2023-03-26T06:08:29.763Z,7.63
2023-03-26T06:11:07.288Z,7.66
2023-03-26T06:13:37.333Z,7.67
2023-03-26T06:16:06.113Z,7.64
2023-03-26T06:18:37.372Z,7.71
2023-03-26T06:21:18.034Z,7.71
2023-03-26T06:23:51.920Z,7.77
2023-03-26T06:26:49.173Z,7.74
2023-03-26T06:29:19.768Z,7.77
2023-03-26T06:31:53.808Z,7.81
2023-03-26T06:34:38.536Z,7.78
2023-03-26T06:37:06.408Z,7.87
2023-03-26T06:39:34.503Z,7.87
2023-03-26T06:42:16.089Z,7.91
2023-03-26T06:44:59.617Z,7.91
2023-03-26T06:47:46.286Z,7.88
2023-03-26T06:50:43.404Z,7.92
2023-03-26T06:53:26.448Z,7.95
2023-03-26T06:55:59.782Z,7.97
2023-03-26T06:58:53.667Z,8.01
2023-03-26T07:01:40.450Z,8.08
2023-03-26T07:04:46.322Z,8.06
2023-03-26T07:07:32.536Z,8.09
2023-03-26T07:10:19.286Z,8.11
2023-03-26T07:13:01.293Z,8.13
2023-03-26T07:16:04.646Z,8.16
2023-03-26T07:18:58.910Z,8.21
2023-03-26T07:21:34.660Z,8.21
2023-03-26T07:24:11.129Z,8.22
2023-03-26T07:27:19.881Z,8.22
2023-03-26T07:30:17.936Z,8.06
2023-03-26T07:33:41.468Z,7.94
2023-03-26T07:36:59.753Z,7.91
2023-03-26T07:39:59.808Z,7.88
2023-03-26T07:42:50.214Z,7.83
2023-03-26T07:45:43.455Z,7.81
2023-03-26T07:48:40.688Z,7.81
2023-03-26T07:51:18.790Z,7.85
2023-03-26T07:54:09.986Z,7.87
2023-03-26T07:57:13.597Z,7.81
2023-03-26T08:00:02.506Z,7.87
2023-03-26T08:03:10.018Z,7.85
2023-03-26T08:06:15.443Z,7.90
2023-03-26T08:09:38.384Z,7.90
2023-03-26T08:12:59.687Z,7.87
2023-03-26T08:15:41.646Z,7.81
2023-03-26T08:18:36.090Z,7.81
2023-03-26T08:21:18.671Z,7.85
2023-03-26T08:24:16.507Z,7.78
2023-03-26T08:27:05.535Z,7.85
2023-03-26T08:29:50.227Z,7.81
2023-03-26T08:32:19.952Z,7.81
2023-03-26T08:34:48.309Z,7.84
2023-03-26T08:37:16.416Z,7.87
2023-03-26T08:39:45.308Z,7.95
2023-03-26T08:42:19.019Z,8.04
2023-03-26T08:44:55.934Z,8.11
2023-03-26T08:48:03.290Z,8.15
2023-03-26T08:50:58.321Z,8.13
2023-03-26T08:53:45.202Z,8.22
2023-03-26T08:56:32.528Z,8.24
2023-03-26T08:59:37.811Z,8.29
2023-03-26T09:02:11.758Z,8.36
2023-03-26T09:04:53.846Z,8.36
2023-03-26T09:08:04.693Z,8.32
2023-03-26T09:10:52.381Z,8.28
2023-03-26T09:13:45.331Z,8.33
2023-03-26T09:16:13.097Z,8.26
2023-03-26T09:19:11.272Z,8.25
2023-03-26T09:22:37.987Z,8.30
2023-03-26T09:25:14.302Z,8.30
2023-03-26T09:28:09.659Z,8.28
2023-03-26T09:30:43.555Z,8.29
2023-03-26T09:33:26.436Z,8.38
2023-03-26T09:36:08.727Z,8.50
2023-03-26T09:39:00.451Z,8.60
2023-03-26T09:42:24.409Z,8.56
2023-03-26T09:45:29.233Z,8.42
2023-03-26T09:48:38.576Z,8.43
2023-03-26T09:51:09.286Z,8.39
2023-03-26T09:54:15.104Z,8.42
2023-03-26T09:57:26.331Z,8.28
2023-03-26T09:59:57.011Z,8.30
2023-03-26T10:02:45.850Z,8.28
2023-03-26T10:05:42.427Z,8.19
2023-03-26T10:08:48.163Z,8.21
2023-03-26T10:11:53.367Z,8.21
2023-03-26T10:14:37.059Z,8.19
2023-03-26T10:17:25.428Z,8.12
2023-03-26T10:20:13.083Z,8.09
2023-03-26T10:23:06.597Z,8.08
2023-03-26T10:25:48.130Z,8.05
2023-03-26T10:28:18.800Z,8.12
2023-03-26T10:31:07.859Z,8.15
2023-03-26T10:33:48.158Z,8.25
2023-03-26T10:36:35.477Z,8.33
2023-03-26T10:39:37.253Z,8.26
2023-03-26T10:42:46.782Z,8.22
2023-03-26T10:45:57.440Z,8.18
2023-03-26T10:48:28.369Z,8.21
2023-03-26T10:51:05.325Z,8.22
2023-03-26T10:53:51.881Z,8.25
2023-03-26T10:56:38.376Z,8.30
2023-03-26T10:59:13.615Z,8.29
2023-03-26T11:02:07.662Z,8.33
2023-03-26T11:05:17.754Z,8.38
2023-03-26T11:08:07.390Z,8.50
2023-03-26T11:11:02.927Z,8.56
2023-03-26T11:13:55.284Z,8.47
2023-03-26T11:17:00.111Z,8.45
2023-03-26T11:19:44.848Z,8.33
2023-03-26T11:22:19.287Z,8.38
2023-03-26T11:24:53.198Z,8.40
2023-03-26T11:27:56.066Z,8.35
2023-03-26T11:30:46.876Z,8.26
2023-03-26T11:33:32.784Z,8.24
2023-03-26T11:36:09.835Z,8.25
2023-03-26T11:39:10.733Z,8.22
2023-03-26T11:41:38.664Z,8.26
2023-03-26T11:44:23.878Z,8.18
2023-03-26T11:47:04.090Z,8.04
2023-03-26T11:49:32.923Z,8.05
2023-03-26T11:52:01.876Z,8.01
2023-03-26T11:54:29.831Z,7.92
2023-03-26T11:57:12.886Z,7.94
2023-03-26T11:59:57.225Z,7.90
2023-03-26T12:02:34.148Z,7.95
2023-03-26T12:05:15.456Z,7.92
2023-03-26T12:08:02.447Z,7.97
2023-03-26T12:10:39.184Z,8.04
2023-03-26T12:13:28.121Z,8.06
2023-03-26T12:16:04.518Z,8.21
2023-03-26T12:18:32.809Z,8.22
2023-03-26T12:21:14.064Z,8.32
2023-03-26T12:24:05.359Z,8.47
2023-03-26T12:26:46.373Z,8.52
2023-03-26T12:29:17.186Z,8.54
2023-03-26T12:32:13.218Z,8.63
2023-03-26T12:34:44.206Z,8.77
2023-03-26T12:37:36.964Z,8.84
2023-03-26T12:40:28.086Z,8.84
2023-03-26T12:44:52.618Z,9.00
2023-03-26T12:47:54.245Z,8.89
2023-03-26T12:48:42.757Z,8.95
2023-03-26T12:51:26.299Z,8.95
2023-03-26T12:54:03.492Z,9.02
2023-03-26T12:56:50.048Z,9.14
2023-03-26T12:59:53.972Z,9.12
2023-03-26T13:02:33.825Z,9.19
2023-03-26T13:05:29.695Z,9.19
2023-03-26T13:08:17.892Z,9.21
2023-03-26T13:11:20.901Z,9.28
2023-03-26T13:14:06.450Z,9.23
2023-03-26T13:16:46.694Z,9.26
2023-03-26T13:19:45.142Z,9.11
2023-03-26T13:22:24.703Z,9.19
2023-03-26T13:25:08.121Z,9.36
2023-03-26T13:28:11.998Z,9.22
2023-03-26T13:30:56.958Z,9.16
2023-03-26T13:33:33.803Z,9.22
2023-03-26T13:36:24.965Z,9.18
2023-03-26T13:39:14.205Z,9.32
2023-03-26T13:41:55.800Z,9.23
2023-03-26T13:45:04.557Z,9.12
2023-03-26T13:47:41.764Z,9.04
2023-03-26T13:50:29.228Z,9.02
2023-03-26T13:53:05.952Z,9.01
2023-03-26T13:55:56.900Z,9.12
2023-03-26T13:58:42.420Z,9.36
2023-03-26T14:01:19.392Z,9.42
2023-03-26T14:04:17.822Z,9.46
2023-03-26T14:07:08.032Z,9.38
2023-03-26T14:09:38.886Z,9.50
2023-03-26T14:12:27.424Z,9.43
2023-03-26T14:15:16.425Z,9.36
2023-03-26T14:18:12.784Z,9.32
2023-03-26T14:21:09.590Z,9.28
2023-03-26T14:23:54.676Z,9.07
2023-03-26T14:26:41.633Z,8.94
2023-03-26T14:29:29.695Z,8.91
2023-03-26T14:32:12.765Z,8.75
2023-03-26T14:35:02.207Z,8.73
2023-03-26T14:37:39.998Z,8.66
2023-03-26T14:40:19.196Z,8.71
2023-03-26T14:43:17.475Z,8.71
2023-03-26T14:46:09.143Z,8.56
2023-03-26T14:48:39.934Z,8.35
2023-03-26T14:51:45.367Z,8.26
2023-03-26T14:54:17.232Z,8.33
2023-03-26T14:56:51.913Z,8.32
2023-03-26T14:59:47.719Z,8.25
2023-03-26T15:02:37.973Z,8.16
2023-03-26T15:05:29.227Z,8.13
2023-03-26T15:08:06.177Z,8.09
2023-03-26T15:11:02.250Z,8.13
2023-03-26T15:13:52.306Z,8.08
2023-03-26T15:16:29.570Z,8.11
2023-03-26T15:19:44.680Z,8.09
2023-03-26T15:22:52.900Z,8.09
2023-03-26T15:25:41.964Z,8.18
2023-03-26T15:28:46.582Z,8.15
2023-03-26T15:31:42.651Z,7.99
2023-03-26T15:34:20.333Z,7.91
2023-03-26T15:37:22.430Z,7.77
2023-03-26T15:40:31.489Z,7.80
2023-03-26T15:43:02.163Z,7.78
2023-03-26T15:45:38.216Z,7.81
2023-03-26T15:48:12.133Z,7.81
2023-03-26T15:50:45.742Z,7.85
2023-03-26T15:53:25.769Z,7.80
2023-03-26T15:56:01.958Z,7.78
2023-03-26T15:58:56.899Z,7.83
2023-03-26T16:01:39.699Z,7.77
2023-03-26T16:04:29.539Z,7.63
2023-03-26T16:07:21.800Z,7.59
2023-03-26T16:09:54.419Z,7.57
2023-03-26T16:12:47.885Z,7.50
2023-03-26T16:15:26.842Z,7.50
2023-03-26T16:18:40.142Z,7.56
2023-03-26T16:21:34.400Z,7.52
2023-03-26T16:24:10.275Z,7.52
2023-03-26T16:26:43.980Z,7.53
2023-03-26T16:29:15.703Z,7.62
2023-03-26T16:32:14.644Z,7.57
2023-03-26T16:34:58.295Z,7.53
2023-03-26T16:37:45.925Z,7.46
2023-03-26T16:40:20.803Z,7.36
2023-03-26T16:42:55.902Z,7.28
2023-03-26T16:45:59.395Z,7.22
2023-03-26T16:48:58.998Z,7.19
2023-03-26T16:51:34.087Z,7.16
2023-03-26T16:54:22.201Z,7.18
2023-03-26T16:57:07.418Z,7.15
2023-03-26T17:00:07.350Z,7.14
2023-03-26T17:02:52.349Z,7.12
2023-03-26T17:05:44.884Z,7.04
2023-03-26T17:08:37.415Z,7.01
2023-03-26T17:11:21.496Z,7.01
2023-03-26T17:14:17.140Z,7.01
2023-03-26T17:17:02.858Z,6.97
2023-03-26T17:19:46.649Z,6.92
2023-03-26T17:22:26.727Z,6.87
2023-03-26T17:25:19.854Z,6.83
2023-03-26T17:28:15.568Z,6.80
2023-03-26T17:30:54.574Z,6.77
2023-03-26T17:33:38.831Z,6.76
2023-03-26T17:36:12.701Z,6.69
2023-03-26T17:38:45.318Z,6.67
2023-03-26T17:41:17.840Z,6.64
2023-03-26T17:43:51.301Z,6.58
2023-03-26T17:46:34.635Z,6.53
2023-03-26T17:49:13.202Z,6.52
2023-03-26T17:51:58.628Z,6.49
2023-03-26T17:54:46.552Z,6.49
2023-03-26T17:57:28.308Z,6.49
2023-03-26T18:00:00.956Z,6.47
2023-03-26T18:02:42.422Z,6.46
2023-03-26T18:05:15.362Z,6.39
2023-03-26T18:08:12.882Z,6.32
2023-03-26T18:11:08.091Z,6.35
2023-03-26T18:14:05.419Z,6.26
2023-03-26T18:16:54.678Z,6.22
2023-03-26T18:19:25.013Z,6.19
2023-03-26T18:22:04.820Z,6.14
2023-03-26T18:24:38.134Z,6.05
2023-03-26T18:27:12.515Z,5.91
2023-03-26T18:30:02.856Z,5.81
2023-03-26T18:32:33.991Z,5.75
2023-03-26T18:35:21.704Z,5.63
2023-03-26T18:37:53.469Z,5.62
2023-03-26T18:40:26.194Z,5.62
2023-03-26T18:42:58.052Z,5.60
2023-03-26T18:45:29.283Z,5.59
2023-03-26T18:48:01.276Z,5.60
2023-03-26T18:50:37.223Z,5.57
2023-03-26T18:53:10.212Z,5.53
2023-03-26T18:55:39.847Z,5.49
2023-03-26T18:58:30.198Z,5.40
2023-03-26T19:01:03.898Z,5.34
2023-03-26T19:03:36.076Z,5.28
2023-03-26T19:06:08.539Z,5.21
2023-03-26T19:08:39.019Z,5.19
2023-03-26T19:11:09.146Z,5.14
2023-03-26T19:13:42.703Z,5.07
2023-03-26T19:16:24.627Z,5.00
2023-03-26T19:18:53.280Z,4.97
2023-03-26T19:21:23.528Z,4.94
2023-03-26T19:23:55.828Z,4.91
2023-03-26T19:26:25.537Z,4.90
2023-03-26T19:28:56.597Z,4.81
2023-03-26T19:31:27.935Z,4.79
2023-03-26T19:34:00.685Z,4.76
2023-03-26T19:36:31.702Z,4.72
2023-03-26T19:38:59.700Z,4.69
2023-03-26T19:41:36.770Z,4.62
2023-03-26T19:44:27.040Z,4.60
2023-03-26T19:47:05.464Z,4.50
2023-03-26T19:49:48.586Z,4.49
2023-03-26T19:52:32.665Z,4.46
2023-03-26T19:55:03.864Z,4.44
2023-03-26T19:57:36.390Z,4.36
2023-03-26T20:00:15.300Z,4.32
2023-03-26T20:02:46.459Z,4.29
2023-03-26T20:05:24.532Z,4.21
2023-03-26T20:07:56.012Z,4.18
2023-03-26T20:10:24.626Z,4.15
2023-03-26T20:12:52.996Z,4.15
2023-03-26T20:15:30.211Z,4.14
2023-03-26T20:18:00.985Z,4.17
2023-03-26T20:20:30.734Z,4.14
2023-03-26T20:22:59.155Z,4.18
2023-03-26T20:25:35.034Z,4.18
2023-03-26T20:28:03.186Z,4.17
2023-03-26T20:30:37.323Z,4.21
2023-03-26T20:33:12.481Z,4.27
2023-03-26T20:35:45.509Z,4.32
2023-03-26T20:38:13.545Z,4.32
2023-03-26T20:40:42.352Z,4.36
2023-03-26T20:43:12.940Z,4.38
2023-03-26T20:45:41.817Z,4.42
2023-03-26T20:48:12.517Z,4.39
2023-03-26T20:50:50.422Z,4.42
2023-03-26T20:53:20.325Z,4.42
2023-03-26T20:55:49.749Z,4.41
2023-03-26T20:58:31.147Z,4.41
2023-03-26T21:01:00.900Z,4.38
2023-03-26T21:03:30.292Z,4.36
2023-03-26T21:06:02.488Z,4.34
2023-03-26T21:08:37.073Z,4.31
2023-03-26T21:11:15.689Z,4.29
2023-03-26T21:14:21.190Z,4.24
2023-03-26T21:16:49.618Z,4.19
2023-03-26T21:19:17.736Z,4.12
2023-03-26T21:22:12.086Z,4.07
2023-03-26T21:25:05.406Z,4.05
2023-03-26T21:27:37.232Z,4.01
2023-03-26T21:30:13.800Z,3.97
2023-03-26T21:32:45.455Z,4.00
2023-03-26T21:35:14.947Z,3.93
2023-03-26T21:37:45.604Z,3.94
2023-03-26T21:40:16.519Z,3.90
2023-03-26T21:42:50.548Z,3.84
2023-03-26T21:45:20.014Z,3.81
2023-03-26T21:47:48.918Z,3.79
2023-03-26T21:50:19.369Z,3.74
2023-03-26T21:52:47.693Z,3.67
2023-03-26T21:55:24.368Z,3.63
2023-03-26T21:57:57.991Z,3.56
2023-03-26T22:00:41.156Z,3.56
2023-03-26T22:03:25.330Z,3.53
2023-03-26T22:06:01.564Z,3.49
2023-03-26T22:08:41.494Z,3.51
2023-03-26T22:11:12.139Z,3.48
2023-03-26T22:13:40.066Z,3.42
2023-03-26T22:16:09.685Z,3.45
2023-03-26T22:18:37.797Z,3.39
2023-03-26T22:21:06.008Z,3.39
2023-03-26T22:23:38.257Z,3.38
2023-03-26T22:26:06.569Z,3.35
2023-03-26T22:28:34.485Z,3.24
2023-03-26T22:31:09.218Z,3.22
2023-03-26T22:33:38.316Z,3.19
2023-03-26T22:36:22.641Z,3.19
2023-03-26T22:38:55.193Z,3.14
2023-03-26T22:41:23.628Z,3.14
2023-03-26T22:43:55.949Z,3.14
2023-03-26T22:46:24.869Z,3.19
2023-03-26T22:48:52.901Z,3.25
2023-03-26T22:51:20.884Z,3.28
2023-03-26T22:53:48.890Z,3.34
2023-03-26T22:56:17.150Z,3.36
2023-03-26T22:58:48.173Z,3.29
2023-03-26T23:01:21.471Z,3.35
2023-03-26T23:03:50.913Z,3.31
2023-03-26T23:06:19.562Z,3.29
2023-03-26T23:08:47.535Z,3.25
2023-03-26T23:11:18.669Z,3.22
2023-03-26T23:13:47.692Z,3.19
2023-03-26T23:16:17.410Z,3.12
2023-03-26T23:18:48.387Z,3.07
2023-03-26T23:21:19.151Z,3.03
2023-03-26T23:23:48.686Z,3.04
2023-03-26T23:26:16.730Z,3.04
2023-03-26T23:28:44.729Z,3.00
2023-03-26T23:31:13.184Z,2.97
2023-03-26T23:33:46.025Z,2.93
2023-03-26T23:36:18.337Z,2.97
2023-03-26T23:38:48.126Z,2.94
2023-03-26T23:41:19.295Z,2.90
2023-03-26T23:43:53.530Z,2.89
2023-03-26T23:46:33.112Z,2.87
2023-03-26T23:49:04.741Z,2.89
2023-03-26T23:51:33.472Z,2.86
2023-03-26T23:54:02.451Z,2.86
2023-03-26T23:56:31.803Z,2.87
2023-03-26T23:59:00.651Z,2.89
